Time;durP1;ratioP1;P1;durP2;ratioP2;P2;SDS_P1;SDS_P2;PMS_P1;PMS_P2;Temp;Humidity;BMP_temperature;BMP_pressure;BME280_temperature;BME280_humidity;BME280_pressure;Samples;Min_cycle;Max_cycle;Signal;HPM_P1;HPM_P2
2021/10/27 00:00:36;;;;;;;12.70;6.82;;;;;;;7.33;83.13;97174.50;5048056;28;20052;-72
2021/10/27 00:03:02;;;;;;;9.43;5.97;;;;;;;7.32;83.03;97178.31;5047245;28;20080;-72
2021/10/27 00:05:29;;;;;;;8.52;6.35;;;;;;;7.29;82.87;97176.13;5047615;28;20056;-72
2021/10/27 00:07:56;;;;;;;8.15;5.97;;;;;;;7.27;83.13;97167.47;5047781;28;20052;-72
2021/10/27 00:10:22;;;;;;;8.35;5.57;;;;;;;7.27;83.09;97173.72;5047076;28;20503;-73
2021/10/27 00:12:49;;;;;;;9.55;6.13;;;;;;;7.26;82.95;97176.69;5047733;28;20417;-72
2021/10/27 00:15:17;;;;;;;9.73;6.18;;;;;;;7.24;82.78;97174.25;5046516;28;20071;-72
2021/10/27 00:17:44;;;;;;;10.07;6.38;;;;;;;7.25;82.58;97175.06;5047945;28;20510;-72
2021/10/27 00:20:11;;;;;;;8.20;5.68;;;;;;;7.23;82.78;97178.06;5046779;28;20084;-72
2021/10/27 00:22:39;;;;;;;10.77;5.70;;;;;;;7.23;82.84;97182.66;5047952;28;20087;-72
2021/10/27 00:25:07;;;;;;;10.00;5.82;;;;;;;7.20;82.47;97177.78;5044834;28;20045;-72
2021/10/27 00:27:33;;;;;;;8.85;5.95;;;;;;;7.19;82.53;97181.59;5047306;28;20049;-72
2021/10/27 00:30:00;;;;;;;8.70;5.85;;;;;;;7.19;82.74;97181.59;5047147;28;20045;-72
2021/10/27 00:32:28;;;;;;;8.60;5.85;;;;;;;7.20;82.66;97188.63;5046973;28;20544;-72
2021/10/27 00:34:54;;;;;;;10.90;6.00;;;;;;;7.20;82.54;97186.72;5046830;28;20049;-73
2021/10/27 00:37:21;;;;;;;8.57;5.60;;;;;;;7.24;80.60;97187.78;5046028;28;20060;-72
2021/10/27 00:39:47;;;;;;;7.50;5.05;;;;;;;7.24;79.48;97184.28;5047067;28;20053;-72
2021/10/27 00:42:14;;;;;;;8.80;4.93;;;;;;;7.12;79.05;97181.06;5045599;28;20049;-72
2021/10/27 00:44:41;;;;;;;7.43;5.53;;;;;;;7.01;79.36;97186.50;5046975;28;20052;-72
2021/10/27 00:47:09;;;;;;;8.77;5.32;;;;;;;6.93;79.85;97183.53;5045712;28;20736;-72
2021/10/27 00:49:40;;;;;;;8.02;5.45;;;;;;;6.86;80.00;97188.44;5047680;28;20048;-72
2021/10/27 00:52:11;;;;;;;10.82;5.53;;;;;;;6.81;80.53;97189.25;5045753;28;20049;-72
2021/10/27 00:54:39;;;;;;;7.30;4.97;;;;;;;6.85;79.53;97192.25;5046852;28;20041;-72
2021/10/27 00:57:07;;;;;;;8.30;5.03;;;;;;;6.82;79.48;97184.66;5046092;28;20076;-71
2021/10/27 00:59:39;;;;;;;8.52;5.20;;;;;;;6.76;79.24;97189.25;5046711;28;20057;-72
2021/10/27 01:02:06;;;;;;;7.63;4.93;;;;;;;6.62;79.22;97188.19;5046309;28;20132;-72
2021/10/27 01:04:32;;;;;;;8.25;4.70;;;;;;;6.54;79.90;97193.06;5047190;28;20045;-72
2021/10/27 01:07:00;;;;;;;7.15;4.95;;;;;;;6.51;79.86;97187.38;5047355;28;20073;-72
2021/10/27 01:09:27;;;;;;;8.63;5.07;;;;;;;6.50;80.10;97183.88;5049654;28;20052;-72
2021/10/27 01:11:54;;;;;;;8.00;4.85;;;;;;;6.46;80.21;97185.50;5051165;28;20052;-72
2021/10/27 01:14:20;;;;;;;8.13;5.30;;;;;;;6.42;80.14;97179.03;5050244;28;20060;-72
2021/10/27 01:16:47;;;;;;;11.95;6.30;;;;;;;6.40;80.54;97180.34;5051002;28;20159;-72
2021/10/27 01:19:14;;;;;;;8.88;5.82;;;;;;;6.42;80.90;97173.59;5050546;28;20053;-72
2021/10/27 01:21:42;;;;;;;9.43;5.78;;;;;;;6.43;81.05;97180.63;5050488;28;20125;-72
2021/10/27 01:24:09;;;;;;;9.40;5.65;;;;;;;6.43;80.50;97174.41;5050777;28;20049;-72
2021/10/27 01:26:37;;;;;;;7.75;5.32;;;;;;;6.39;80.82;97173.31;5049559;28;20049;-72
2021/10/27 01:29:04;;;;;;;10.10;5.68;;;;;;;6.37;80.80;97170.06;5051034;28;20049;-72
2021/10/27 01:31:30;;;;;;;8.02;5.30;;;;;;;6.40;81.00;97170.34;5049935;28;20566;-72
2021/10/27 01:33:57;;;;;;;8.63;5.38;;;;;;;6.40;80.78;97180.34;5051002;28;20041;-72
2021/10/27 01:36:24;;;;;;;9.85;6.20;;;;;;;6.39;81.05;97170.63;5049683;28;20408;-72
2021/10/27 01:38:52;;;;;;;9.73;5.72;;;;;;;6.36;80.90;97168.44;5050762;28;20500;-72
2021/10/27 01:41:18;;;;;;;8.18;5.43;;;;;;;6.35;81.05;97167.63;5050038;28;20087;-72
2021/10/27 01:43:51;;;;;;;7.80;5.13;;;;;;;6.35;81.08;97169.53;5050386;28;20049;-72
2021/10/27 01:46:17;;;;;;;7.57;5.27;;;;;;;6.33;81.02;97169.81;5050286;28;20045;-72
2021/10/27 01:48:44;;;;;;;7.63;5.43;;;;;;;6.33;81.09;97174.41;5049698;28;20049;-72
2021/10/27 01:51:11;;;;;;;9.27;6.25;;;;;;;6.34;81.14;97171.44;5050445;28;20040;-72
2021/10/27 01:53:37;;;;;;;9.02;5.35;;;;;;;6.38;81.25;97169.81;5049857;28;20420;-72
2021/10/27 01:56:05;;;;;;;11.60;5.10;;;;;;;6.38;80.66;97167.13;5049533;28;20068;-72
2021/10/27 01:58:32;;;;;;;11.50;5.35;;;;;;;6.37;80.93;97162.78;5049212;28;20052;-72
2021/10/27 02:00:58;;;;;;;8.05;6.18;;;;;;;6.37;80.86;97168.19;5050111;28;20075;-72
2021/10/27 02:03:25;;;;;;;8.23;5.88;;;;;;;6.36;80.82;97163.03;5049718;28;20052;-72
2021/10/27 02:05:51;;;;;;;7.70;5.10;;;;;;;6.35;80.62;97162.22;5049893;28;20551;-72
2021/10/27 02:08:18;;;;;;;9.00;4.95;;;;;;;6.35;80.42;97167.63;5049680;28;20045;-72
2021/10/27 02:10:44;;;;;;;9.73;5.13;;;;;;;6.34;80.36;97168.72;5049590;28;20132;-72
2021/10/27 02:13:12;;;;;;;8.68;5.10;;;;;;;6.35;80.27;97167.63;5050100;28;20056;-72
2021/10/27 02:15:39;;;;;;;8.63;5.45;;;;;;;6.33;80.28;97169.81;5049164;28;20041;-72
2021/10/27 02:18:05;;;;;;;9.05;5.43;;;;;;;6.34;80.13;97174.13;5049456;28;20044;-71
2021/10/27 02:20:32;;;;;;;7.65;4.88;;;;;;;6.34;80.01;97187.66;5048442;28;20045;-72
2021/10/27 02:22:59;;;;;;;6.05;4.60;;;;;;;6.34;79.90;97171.44;5049891;28;20056;-72
2021/10/27 02:25:25;;;;;;;7.28;4.65;;;;;;;6.31;78.38;97171.97;5048701;28;20459;-72
2021/10/27 02:27:52;;;;;;;6.55;4.60;;;;;;;6.24;76.94;97182.25;5050053;28;20052;-72
2021/10/27 02:30:20;;;;;;;7.00;3.83;;;;;;;6.09;76.58;97180.34;5049667;28;20396;-72
2021/10/27 02:32:46;;;;;;;8.15;4.47;;;;;;;5.90;76.98;97184.59;5049062;28;20045;-72
2021/10/27 02:35:13;;;;;;;8.13;4.35;;;;;;;5.79;77.63;97191.88;5049102;28;20053;-72
2021/10/27 02:37:40;;;;;;;7.15;4.75;;;;;;;5.73;78.37;97192.94;5048675;28;20459;-72
2021/10/27 02:40:08;;;;;;;6.85;4.75;;;;;;;5.64;78.28;97189.97;5049614;28;20053;-72
2021/10/27 02:42:35;;;;;;;8.05;5.13;;;;;;;5.59;78.82;97197.25;5049721;28;20500;-72
2021/10/27 02:45:01;;;;;;;8.20;5.03;;;;;;;5.57;79.68;97194.78;5049355;28;20143;-71
2021/10/27 02:47:29;;;;;;;12.75;5.35;;;;;;;5.61;79.91;97197.78;5048956;28;20064;-72
2021/10/27 02:49:55;;;;;;;8.60;5.70;;;;;;;5.60;80.42;97193.47;5049366;28;20056;-72
2021/10/27 02:52:22;;;;;;;8.50;5.22;;;;;;;5.61;80.60;97192.38;5048578;28;20052;-72
2021/10/27 02:54:48;;;;;;;7.95;5.20;;;;;;;5.63;80.95;97192.91;5048837;28;20044;-72
2021/10/27 02:57:15;;;;;;;7.55;5.07;;;;;;;5.63;80.89;97198.31;5048216;28;20045;-72
2021/10/27 02:59:41;;;;;;;9.95;5.60;;;;;;;5.62;80.94;97196.69;5048804;28;20052;-72
2021/10/27 03:02:08;;;;;;;10.18;5.55;;;;;;;5.60;81.21;97204.25;5049211;28;20052;-72
2021/10/27 03:04:36;;;;;;;9.77;5.30;;;;;;;5.62;81.19;97199.41;5048550;28;20420;-72
2021/10/27 03:07:02;;;;;;;7.72;5.05;;;;;;;5.68;81.03;97195.63;5048883;28;20056;-71
2021/10/27 03:09:29;;;;;;;8.25;5.05;;;;;;;5.70;80.73;97204.31;5048427;28;20048;-72
2021/10/27 03:11:56;;;;;;;8.15;4.85;;;;;;;5.70;80.54;97204.31;5048966;28;20076;-72
2021/10/27 03:14:22;;;;;;;7.25;5.07;;;;;;;5.70;80.88;97207.00;5048495;28;20049;-72
2021/10/27 03:16:49;;;;;;;8.70;5.20;;;;;;;5.68;81.13;97206.44;5048696;28;20051;-72
2021/10/27 03:19:15;;;;;;;7.55;4.90;;;;;;;5.68;80.94;97206.44;5048202;28;20052;-71
2021/10/27 03:21:43;;;;;;;6.65;4.45;;;;;;;5.73;80.80;97209.97;5048096;28;20080;-72
2021/10/27 03:24:10;;;;;;;9.25;4.70;;;;;;;5.76;79.38;97214.84;5048781;28;20052;-72
2021/10/27 03:26:36;;;;;;;5.35;3.83;;;;;;;5.71;77.51;97211.31;5047384;28;20047;-72
2021/10/27 03:29:03;;;;;;;7.60;5.03;;;;;;;5.61;77.16;97200.47;5045493;28;20049;-71
2021/10/27 03:31:29;;;;;;;6.65;4.53;;;;;;;5.53;77.41;97199.09;5046933;28;20047;-72
2021/10/27 03:33:57;;;;;;;6.63;4.40;;;;;;;5.47;78.48;97200.97;5048851;28;20053;-72
2021/10/27 03:36:23;;;;;;;10.88;4.90;;;;;;;5.41;78.75;97204.72;5047839;28;20048;-72
2021/10/27 03:38:51;;;;;;;10.48;4.95;;;;;;;5.36;79.20;97204.69;5048336;28;20045;-72
2021/10/27 03:41:18;;;;;;;6.63;4.70;;;;;;;5.34;79.83;97197.94;5047642;28;20055;-72
2021/10/27 03:43:44;;;;;;;8.00;5.30;;;;;;;5.31;80.32;97201.16;5048116;28;20044;-72
2021/10/27 03:46:11;;;;;;;7.32;5.03;;;;;;;5.29;80.67;97206.03;5047595;28;20507;-72
2021/10/27 03:48:38;;;;;;;6.72;4.53;;;;;;;5.28;80.72;97199.00;5047412;28;20075;-72
2021/10/27 03:51:05;;;;;;;7.68;5.15;;;;;;;5.29;81.14;97198.75;5047618;28;20053;-71
2021/10/27 03:53:31;;;;;;;7.32;5.03;;;;;;;5.32;81.04;97198.19;5035887;28;20099;-72
2021/10/27 03:55:59;;;;;;;7.50;4.80;;;;;;;5.35;81.26;97203.06;5037950;28;20052;-72
2021/10/27 03:58:26;;;;;;;7.13;4.70;;;;;;;5.39;80.85;97204.19;5046516;28;20487;-72
2021/10/27 04:00:53;;;;;;;10.88;5.35;;;;;;;5.40;80.90;97205.81;5047117;28;20047;-72
2021/10/27 04:03:23;;;;;;;10.55;5.13;;;;;;;5.43;80.67;97204.47;5046959;28;20531;-72
2021/10/27 04:05:50;;;;;;;11.00;4.88;;;;;;;5.43;80.74;97212.59;5047072;28;20044;-72
2021/10/27 04:08:17;;;;;;;8.40;4.82;;;;;;;5.41;80.36;97218.22;5047349;28;20048;-72
2021/10/27 04:10:45;;;;;;;8.27;4.40;;;;;;;5.36;80.66;97215.50;5047371;28;20107;-72
2021/10/27 04:13:13;;;;;;;8.30;4.75;;;;;;;5.28;80.57;97218.72;5047645;28;20055;-72
2021/10/27 04:15:39;;;;;;;9.05;5.35;;;;;;;5.20;80.33;97211.91;5042529;28;20424;-72
2021/10/27 04:18:05;;;;;;;9.55;5.88;;;;;;;5.17;80.35;97220.56;5027751;28;20124;-72
2021/10/27 04:20:32;;;;;;;10.68;6.38;;;;;;;5.14;80.53;97218.38;5027281;28;20109;-72
2021/10/27 04:22:59;;;;;;;9.40;5.60;;;;;;;5.09;80.63;97220.22;5027741;28;20053;-72
2021/10/27 04:25:25;;;;;;;9.10;5.57;;;;;;;5.04;81.03;97214.81;5031674;28;20053;-72
2021/10/27 04:27:52;;;;;;;9.43;5.93;;;;;;;5.03;81.16;97218.59;5047089;28;20136;-72
2021/10/27 04:30:20;;;;;;;9.65;5.50;;;;;;;5.01;81.23;97212.63;5046798;28;20072;-72
2021/10/27 04:32:46;;;;;;;7.40;4.43;;;;;;;4.97;81.37;97213.16;5046783;28;20040;-72
2021/10/27 04:35:13;;;;;;;6.13;3.88;;;;;;;4.97;82.07;97217.75;5047222;28;20049;-71
2021/10/27 04:37:41;;;;;;;8.10;4.57;;;;;;;4.95;82.29;97220.69;5046835;28;20045;-72
2021/10/27 04:40:10;;;;;;;6.97;4.53;;;;;;;4.97;82.38;97213.16;5047208;28;20082;-71
2021/10/27 04:42:37;;;;;;;7.57;4.30;;;;;;;4.98;82.46;97220.16;5046161;28;20049;-72
2021/10/27 04:45:06;;;;;;;13.40;7.00;;;;;;;4.97;82.43;97215.84;5047288;28;20059;-72
2021/10/27 04:47:34;;;;;;;12.00;7.32;;;;;;;5.02;82.70;97222.38;5046822;28;20070;-72
2021/10/27 04:50:01;;;;;;;6.82;4.43;;;;;;;5.04;82.87;97218.31;5047277;28;20052;-72
2021/10/27 04:52:28;;;;;;;8.98;4.90;;;;;;;5.05;82.85;97224.53;5046566;28;20609;-72
2021/10/27 04:54:54;;;;;;;7.95;4.82;;;;;;;5.06;83.06;97226.94;5046824;28;20056;-72
2021/10/27 04:57:21;;;;;;;7.95;5.15;;;;;;;5.09;82.67;97225.63;5027201;28;20549;-72
2021/10/27 04:59:47;;;;;;;7.32;4.50;;;;;;;5.09;82.82;97226.44;5026720;28;20042;-72
2021/10/27 05:02:16;;;;;;;7.85;4.55;;;;;;;5.11;82.73;97224.28;5027259;28;20049;-71
2021/10/27 05:04:44;;;;;;;9.75;4.88;;;;;;;5.10;82.87;97236.16;5026742;28;20049;-72
2021/10/27 05:07:13;;;;;;;10.40;4.90;;;;;;;5.11;82.61;97231.56;5026984;28;20063;-72
2021/10/27 05:09:40;;;;;;;9.52;4.57;;;;;;;5.13;82.55;97232.13;5026826;28;20046;-72
2021/10/27 05:12:08;;;;;;;8.23;4.90;;;;;;;5.15;82.43;97227.28;5026767;28;20054;-71
2021/10/27 05:14:36;;;;;;;6.95;4.78;;;;;;;5.16;82.33;97231.59;5027367;28;20068;-72
2021/10/27 05:17:05;;;;;;;11.05;5.03;;;;;;;5.15;81.96;97236.19;5025969;28;20100;-71
2021/10/27 05:19:32;;;;;;;7.18;5.25;;;;;;;5.12;81.98;97241.31;5027594;28;20132;-72
2021/10/27 05:22:00;;;;;;;7.95;5.00;;;;;;;5.12;82.16;97235.91;5026100;28;20699;-72
2021/10/27 05:24:26;;;;;;;9.82;5.05;;;;;;;5.13;81.90;97241.03;5027442;28;20718;-74
2021/10/27 05:26:52;;;;;;;7.82;4.85;;;;;;;5.16;81.90;97243.22;5042961;28;20523;-74
2021/10/27 05:29:20;;;;;;;8.43;5.32;;;;;;;5.19;81.93;97239.19;5046778;28;20049;-73
2021/10/27 05:31:46;;;;;;;9.95;4.82;;;;;;;5.23;81.49;97243.00;5045821;28;20151;-74
2021/10/27 05:34:13;;;;;;;8.35;5.38;;;;;;;5.26;81.25;97242.47;5045354;28;20053;-75
2021/10/27 05:36:40;;;;;;;7.43;5.00;;;;;;;5.25;81.48;97246.25;5045497;28;20052;-74
2021/10/27 05:39:09;;;;;;;7.75;5.25;;;;;;;5.24;81.21;97255.41;5045605;28;20052;-74
2021/10/27 05:41:36;;;;;;;10.90;6.05;;;;;;;5.19;81.55;97258.91;5044031;28;20082;-75
2021/10/27 05:44:02;;;;;;;8.02;5.13;;;;;;;5.17;81.31;97247.56;5044574;28;20119;-74
2021/10/27 05:46:29;;;;;;;12.43;5.22;;;;;;;5.17;81.17;97254.84;5046112;28;20056;-74
2021/10/27 05:49:03;;;;;;;8.32;4.97;;;;;;;5.15;81.13;97243.47;5045504;28;20797;-75
2021/10/27 05:51:39;;;;;;;9.38;5.20;;;;;;;5.15;81.46;97255.09;5046477;28;20045;-75
2021/10/27 05:56:51;;;;;;;8.95;4.85;;;;;;;5.21;81.55;97250.53;5049475;28;20601;-75
2021/10/27 05:59:17;;;;;;;12.23;4.97;;;;;;;5.25;81.31;97251.63;5049475;28;20672;-75
2021/10/27 06:01:44;;;;;;;8.50;5.18;;;;;;;5.28;80.85;97250.31;5049610;28;20045;-74
2021/10/27 06:04:10;;;;;;;7.50;4.90;;;;;;;5.31;80.86;97253.28;5049742;28;20053;-74
2021/10/27 06:06:37;;;;;;;9.13;4.70;;;;;;;5.35;80.28;97262.50;5049457;28;20547;-74
2021/10/27 06:09:05;;;;;;;12.90;4.80;;;;;;;5.37;79.79;97260.34;5050004;28;20136;-74
2021/10/27 06:11:33;;;;;;;6.10;3.80;;;;;;;5.39;79.59;97271.72;5049741;28;20053;-74
2021/10/27 06:14:02;;;;;;;6.15;4.13;;;;;;;5.38;78.88;97271.97;5049639;28;20051;-74
2021/10/27 06:16:28;;;;;;;7.88;4.35;;;;;;;5.38;78.54;97272.78;5049613;28;20056;-75
2021/10/27 06:18:55;;;;;;;13.43;4.78;;;;;;;5.35;78.57;97275.19;5049197;28;20053;-74
2021/10/27 06:21:22;;;;;;;9.27;4.30;;;;;;;5.32;78.88;97268.41;5049581;28;20119;-74
2021/10/27 06:23:48;;;;;;;9.77;4.88;;;;;;;5.32;79.22;97265.72;5049236;28;20330;-75
2021/10/27 06:26:15;;;;;;;7.55;4.57;;;;;;;5.34;79.55;97263.56;5049111;28;20049;-74
2021/10/27 06:28:53;;;;;;;10.13;5.05;;;;;;;5.35;79.33;97273.31;5048958;28;20045;-74
2021/10/27 06:31:23;;;;;;;10.10;4.38;;;;;;;5.31;79.58;97283.00;5049941;28;20045;-74
2021/10/27 06:33:56;;;;;;;7.22;4.32;;;;;;;5.29;79.71;97284.34;5048572;28;20049;-74
2021/10/27 06:36:27;;;;;;;8.15;4.55;;;;;;;5.28;80.36;97278.13;5049280;28;20102;-75
2021/10/27 06:47:04;;;;;;;11.40;6.05;;;;;;;5.52;81.60;97292.03;5048347;28;20060;-73
2021/10/27 06:49:31;;;;;;;10.25;6.13;;;;;;;5.54;81.75;97297.19;5049348;28;20496;-73
2021/10/27 06:51:58;;;;;;;10.35;5.55;;;;;;;5.59;81.86;97294.50;5048751;28;20579;-73
2021/10/27 06:54:24;;;;;;;8.77;5.63;;;;;;;5.63;82.24;97296.41;5048609;28;20044;-73
2021/10/27 06:56:51;;;;;;;12.48;6.28;;;;;;;5.69;82.50;97302.63;5048283;28;20053;-73
2021/10/27 06:59:26;;;;;;;10.70;5.20;;;;;;;5.76;82.57;97306.75;5047908;28;20045;-73
2021/10/27 07:15:40;;;;;;;11.80;5.55;;;;;;;6.42;81.66;97306.19;5049087;28;20055;-73
2021/10/27 07:18:06;;;;;;;13.50;5.60;;;;;;;6.47;82.19;97300.78;5046935;28;20063;-73
2021/10/27 07:20:33;;;;;;;9.45;6.00;;;;;;;6.52;81.99;97298.06;5048907;28;20068;-73
2021/10/27 07:23:01;;;;;;;7.82;5.53;;;;;;;6.59;82.29;97302.41;5047723;28;20040;-73
2021/10/27 07:25:28;;;;;;;9.27;5.45;;;;;;;6.65;82.15;97301.31;5048282;28;20045;-73
2021/10/27 07:27:55;;;;;;;9.63;5.50;;;;;;;6.73;82.57;97298.06;5048739;28;20057;-73
2021/10/27 07:30:21;;;;;;;10.60;5.60;;;;;;;6.81;82.47;97300.25;5047417;28;20045;-73
2021/10/27 07:32:52;;;;;;;8.48;4.82;;;;;;;6.93;81.38;97300.78;5048467;28;20171;-73
2021/10/27 07:35:26;;;;;;;7.55;4.68;;;;;;;7.00;80.90;97298.63;5047270;28;20045;-73
2021/10/27 07:40:41;;;;;;;11.43;5.30;;;;;;;7.19;81.20;97296.16;5047576;28;20059;-73
2021/10/27 07:43:12;;;;;;;8.27;5.00;;;;;;;7.29;81.02;97295.34;5047194;28;20060;-74
2021/10/27 07:45:40;;;;;;;8.75;5.07;;;;;;;7.41;80.96;97292.31;5047455;28;20055;-74
2021/10/27 07:48:08;;;;;;;11.07;5.45;;;;;;;7.48;80.95;97290.97;5046738;28;20051;-72
2021/10/27 07:50:37;;;;;;;8.07;4.75;;;;;;;7.55;80.69;97288.78;5047976;28;20045;-73
2021/10/27 07:53:05;;;;;;;8.00;4.70;;;;;;;7.65;80.88;97287.13;5046781;28;20155;-72
2021/10/27 07:55:33;;;;;;;7.45;4.95;;;;;;;7.79;80.23;97297.09;5047223;28;20041;-74
2021/10/27 07:58:00;;;;;;;7.60;4.93;;;;;;;7.99;80.05;97293.50;5047120;28;20496;-74
2021/10/27 08:00:29;;;;;;;9.38;4.78;;;;;;;8.15;79.81;97296.16;5047925;28;20048;-74
2021/10/27 08:03:01;;;;;;;9.68;4.68;;;;;;;8.58;80.46;97295.38;5047263;28;20080;-73
2021/10/27 08:05:31;;;;;;;6.95;4.07;;;;;;;9.36;78.37;97301.78;5047269;28;20747;-74
2021/10/27 08:07:58;;;;;;;8.48;4.22;;;;;;;10.04;74.44;97301.59;5047639;28;20053;-74
2021/10/27 08:10:26;;;;;;;6.38;3.92;;;;;;;10.74;72.69;97289.22;5046886;28;20049;-73
2021/10/27 08:12:53;;;;;;;7.03;3.63;;;;;;;11.30;70.36;97301.94;5047828;28;20053;-73
2021/10/27 08:15:20;;;;;;;6.20;3.30;;;;;;;11.64;66.92;97296.94;5046365;28;20052;-73
2021/10/27 08:17:47;;;;;;;11.43;4.15;;;;;;;11.82;66.44;97299.91;5046742;28;20127;-73
2021/10/27 08:20:16;;;;;;;9.50;4.20;;;;;;;11.99;66.44;97302.84;5046427;28;20057;-73
2021/10/27 08:22:45;;;;;;;7.32;3.63;;;;;;;12.31;65.92;97301.09;5048095;28;20041;-73
2021/10/27 08:25:19;;;;;;;7.00;3.42;;;;;;;12.72;64.25;97301.81;5045551;28;20042;-74
2021/10/27 08:27:46;;;;;;;6.30;3.55;;;;;;;13.02;60.90;97294.00;5048177;28;20123;-74
2021/10/27 08:30:14;;;;;;;5.05;3.22;;;;;;;13.46;60.51;97300.59;5047566;28;20083;-73
2021/10/27 08:32:43;;;;;;;6.18;3.42;;;;;;;13.70;59.50;97294.75;5047883;28;20049;-74
2021/10/27 08:35:13;;;;;;;5.88;3.17;;;;;;;13.52;59.17;97294.69;5047548;28;20076;-73
2021/10/27 08:37:41;;;;;;;5.30;3.50;;;;;;;13.41;60.01;97297.97;5047239;28;20082;-74
2021/10/27 08:40:10;;;;;;;8.32;3.75;;;;;;;13.25;60.56;97294.84;5047179;28;20053;-73
2021/10/27 08:42:37;;;;;;;6.70;3.88;;;;;;;13.11;60.92;97292.16;5047224;28;20048;-74
2021/10/27 08:45:04;;;;;;;5.18;2.97;;;;;;;12.97;61.70;97294.94;5047536;28;20045;-74
2021/10/27 08:47:31;;;;;;;5.32;3.53;;;;;;;12.85;62.30;97297.44;5047248;28;20056;-74
2021/10/27 08:49:59;;;;;;;6.78;3.65;;;;;;;12.86;61.39;97299.03;5047805;28;20040;-74
2021/10/27 08:52:26;;;;;;;5.72;4.18;;;;;;;12.93;61.31;97287.66;5047426;28;20445;-74
2021/10/27 08:54:53;;;;;;;5.90;3.65;;;;;;;12.99;61.48;97297.34;5046653;28;20057;-73
2021/10/27 08:57:21;;;;;;;10.00;4.38;;;;;;;12.97;61.66;97299.59;5047204;28;20045;-74
2021/10/27 08:59:52;;;;;;;6.90;4.03;;;;;;;12.91;62.99;97306.31;5046898;28;20045;-73
2021/10/27 09:02:46;;;;;;;6.97;4.88;;;;;;;13.23;64.20;97300.63;5047704;28;20049;-74
2021/10/27 09:05:24;;;;;;;6.30;4.10;;;;;;;13.64;61.19;97305.03;5046912;28;20424;-74
2021/10/27 09:08:19;;;;;;;7.55;4.47;;;;;;;13.66;60.68;97299.25;5047451;28;20051;-73
2021/10/27 09:16:34;;;;;;;10.82;5.13;;;;;;;14.46;60.18;97289.03;5047032;28;20063;-73
2021/10/27 09:36:06;;;;;;;13.63;4.72;;;;;;;14.39;59.74;97277.75;5030840;28;20088;-73
2021/10/27 09:41:41;;;;;;;8.38;4.80;;;;;;;14.27;60.62;97270.97;5030521;28;20053;-72
2021/10/27 10:06:38;;;;;;;10.07;6.15;;;;;;;14.09;61.03;97280.25;4968290;28;20170;-73
2021/10/27 10:09:06;;;;;;;11.48;5.40;;;;;;;14.05;61.04;97279.28;5032263;28;20420;-73
2021/10/27 10:11:33;;;;;;;9.55;5.18;;;;;;;14.07;60.78;97283.31;5049551;28;20049;-73
2021/10/27 10:14:03;;;;;;;13.02;5.55;;;;;;;14.19;61.29;97285.44;5050452;28;20049;-73
2021/10/27 10:16:31;;;;;;;9.05;6.30;;;;;;;14.36;61.79;97284.69;5049515;28;20049;-73
2021/10/27 10:18:59;;;;;;;9.75;5.63;;;;;;;14.30;59.88;97278.53;5050015;28;20053;-73
2021/10/27 10:21:28;;;;;;;9.60;5.47;;;;;;;14.28;60.23;97282.72;5050116;28;20465;-75
2021/10/27 10:24:25;;;;;;;8.73;6.07;;;;;;;14.43;60.75;97274.03;5050284;28;20404;-72
2021/10/27 10:26:53;;;;;;;10.27;6.20;;;;;;;14.61;60.11;97274.88;5037850;28;20132;-73
2021/10/27 10:29:43;;;;;;;13.45;5.70;;;;;;;14.79;58.82;97268.28;5049465;28;20060;-73
2021/10/27 10:32:31;;;;;;;10.88;6.70;;;;;;;14.97;59.64;97265.53;5050352;28;20114;-72
2021/10/27 10:35:04;;;;;;;9.07;5.97;;;;;;;15.12;58.48;97262.28;5049993;28;20501;-73
2021/10/27 10:37:35;;;;;;;10.05;6.05;;;;;;;15.12;58.66;97257.59;5029783;28;20064;-73
2021/10/27 10:40:26;;;;;;;10.55;6.35;;;;;;;15.09;58.14;97249.25;5029610;28;20665;-71
2021/10/27 10:43:02;;;;;;;9.63;6.22;;;;;;;15.06;59.04;97252.63;5027648;28;20049;-73
2021/10/27 10:45:51;;;;;;;9.85;6.50;;;;;;;15.09;58.08;97252.00;5049723;28;20048;-73
2021/10/27 11:03:33;;;;;;;9.77;6.47;;;;;;;15.02;60.63;97224.22;5037738;28;20055;-73
2021/10/27 11:37:39;;;;;;;9.82;6.70;;;;;;;15.61;60.30;97185.97;5048344;28;20056;-74
2021/10/27 11:40:11;;;;;;;8.68;6.43;;;;;;;15.79;61.54;97182.00;5048023;28;20559;-74
2021/10/27 11:42:49;;;;;;;12.13;6.10;;;;;;;15.88;60.15;97179.22;5049199;28;20425;-74
2021/10/27 11:45:23;;;;;;;7.55;6.43;;;;;;;16.03;60.52;97175.09;5048076;28;20052;-74
2021/10/27 11:47:53;;;;;;;12.75;6.85;;;;;;;16.17;59.64;97173.69;5048875;28;20076;-73
2021/10/27 11:50:21;;;;;;;13.15;6.80;;;;;;;16.30;58.54;97165.53;5047450;28;20136;-73
2021/10/27 11:52:51;;;;;;;13.00;6.40;;;;;;;16.33;58.55;97170.34;5048067;28;20059;-74
2021/10/27 11:55:19;;;;;;;12.02;6.82;;;;;;;16.37;58.15;97160.28;5047427;28;20438;-73
2021/10/27 11:57:51;;;;;;;11.23;7.47;;;;;;;16.52;58.73;97154.19;5047806;28;20393;-74
2021/10/27 12:00:29;;;;;;;13.38;7.43;;;;;;;16.55;57.17;97152.69;5047825;28;20052;-73
2021/10/27 12:03:00;;;;;;;12.30;7.65;;;;;;;16.75;59.15;97146.38;5047256;28;20053;-73
2021/10/27 12:05:28;;;;;;;11.57;7.43;;;;;;;16.76;56.47;97142.53;5048064;28;20645;-74
2021/10/27 12:08:12;;;;;;;13.18;7.80;;;;;;;16.80;57.71;97148.94;5047658;28;20048;-73
2021/10/27 12:10:46;;;;;;;11.25;7.38;;;;;;;16.86;56.43;97144.84;5047461;28;20049;-74
2021/10/27 12:13:29;;;;;;;13.00;7.50;;;;;;;17.03;57.01;97141.09;5047583;28;20056;-73
2021/10/27 12:16:25;;;;;;;17.13;8.13;;;;;;;17.09;55.55;97138.94;5046859;28;20076;-74
2021/10/27 12:18:55;;;;;;;13.45;8.25;;;;;;;17.09;55.92;97138.94;5047209;28;20053;-75
2021/10/27 12:21:23;;;;;;;20.65;9.25;;;;;;;17.22;56.31;97126.78;5046497;28;20052;-73
2021/10/27 12:23:51;;;;;;;17.42;10.00;;;;;;;17.31;55.88;97129.44;5047516;28;20044;-73
2021/10/27 12:26:19;;;;;;;13.55;8.50;;;;;;;17.38;55.18;97126.91;5046616;28;20068;-73
2021/10/27 12:28:51;;;;;;;14.68;8.75;;;;;;;17.45;54.75;97118.91;5047208;28;20069;-74
2021/10/27 12:31:19;;;;;;;15.27;8.98;;;;;;;17.43;54.68;97116.47;5047420;28;20053;-73
2021/10/27 12:33:47;;;;;;;15.82;9.98;;;;;;;17.56;56.20;97113.75;5046968;28;20667;-73
2021/10/27 12:36:23;;;;;;;14.30;9.13;;;;;;;17.68;53.72;97108.22;5047408;28;20649;-74
2021/10/27 12:39:09;;;;;;;13.20;8.75;;;;;;;17.79;54.90;97106.63;5046659;28;20534;-74
2021/10/27 12:41:36;;;;;;;14.32;8.90;;;;;;;17.83;54.05;97107.53;5047270;28;20544;-73
2021/10/27 12:44:20;;;;;;;13.43;8.65;;;;;;;17.70;53.70;97103.19;5046456;28;20060;-73
2021/10/27 12:46:47;;;;;;;13.18;9.27;;;;;;;17.54;54.51;97105.81;5047050;28;20045;-73
2021/10/27 12:49:20;;;;;;;13.27;9.30;;;;;;;17.50;55.85;97095.84;5047332;28;20404;-73
2021/10/27 12:51:48;;;;;;;15.15;10.15;;;;;;;17.26;55.24;97097.44;5046922;28;20750;-73
2021/10/27 12:54:14;;;;;;;19.30;10.80;;;;;;;16.98;56.45;97099.25;5029885;28;20057;-74
2021/10/27 12:56:41;;;;;;;19.00;11.50;;;;;;;16.89;56.75;97097.38;5041682;28;20053;-74
2021/10/27 12:59:11;;;;;;;19.20;12.10;;;;;;;16.77;57.26;97094.59;5046135;28;20089;-75
2021/10/27 13:01:41;;;;;;;16.70;11.43;;;;;;;16.59;58.19;97093.94;5046080;28;20049;-74
2021/10/27 13:04:26;;;;;;;15.18;10.73;;;;;;;16.53;57.79;97094.50;5047580;28;20049;-75
2021/10/27 13:06:59;;;;;;;20.27;12.75;;;;;;;16.37;58.58;97097.06;5051659;28;20052;-74
2021/10/27 13:09:52;;;;;;;20.55;13.18;;;;;;;16.12;59.47;97096.94;5049869;28;20132;-74
2021/10/27 13:18:00;;;;;;;21.15;13.18;;;;;;;16.20;59.35;97084.28;5050649;28;20041;-75
2021/10/27 13:20:47;;;;;;;22.02;13.43;;;;;;;16.21;59.25;97083.16;5051261;28;20057;-76
2021/10/27 13:23:26;;;;;;;21.40;13.98;;;;;;;16.35;59.18;97074.63;5049982;28;20135;-78
2021/10/27 13:31:22;;;;;;;20.08;14.63;;;;;;;16.74;58.15;97062.28;5050006;28;20403;-78
2021/10/27 13:33:50;;;;;;;23.13;15.88;;;;;;;16.83;58.28;97063.00;5051420;28;20571;-75
2021/10/27 13:36:17;;;;;;;24.17;15.45;;;;;;;16.78;57.61;97059.66;5049456;28;20048;-76
2021/10/27 13:38:45;;;;;;;24.10;16.65;;;;;;;16.63;58.69;97052.84;5051099;28;20098;-77
2021/10/27 13:41:12;;;;;;;23.65;16.27;;;;;;;16.60;58.38;97056.25;5049534;28;20102;-77
2021/10/27 13:43:42;;;;;;;27.17;17.17;;;;;;;16.62;58.99;97042.97;5050287;28;20075;-76
2021/10/27 13:49:20;;;;;;;23.17;15.35;;;;;;;16.59;57.72;97040.91;5049537;28;20089;-75
2021/10/27 14:08:17;;;;;;;32.05;20.02;;;;;;;16.86;57.89;97037.56;5049567;28;20511;-77
2021/10/27 14:10:47;;;;;;;27.85;18.42;;;;;;;16.71;58.95;97040.97;5049990;28;20455;-76
2021/10/27 14:13:23;;;;;;;26.85;18.50;;;;;;;16.72;58.68;97037.06;5050199;28;20674;-75
2021/10/27 14:16:15;;;;;;;29.40;18.88;;;;;;;16.76;58.58;97038.00;5048136;28;20095;-74